Date,TemperatureHighF,TemperatureAvgF,TemperatureLowF,DewpointHighF,DewpointAvgF,DewpointLowF,HumidityHigh,HumidityAvg,HumidityLow,PressureMaxIn,PressureMinIn,WindSpeedMaxMPH,WindSpeedAvgMPH,GustSpeedMaxMPH,PrecipitationSumIn
2012-1-1,87,70,56,18,8,0,15,9,5,0.00,40.00,5,2,13,0.00
2012-1-2,88,68,52,21,11,3,16,11,6,0.00,40.00,7,2,15,0.00
2012-1-3,87,70,58,25,11,1,14,10,5,0.00,40.00,13,3,18,0.00
2012-1-4,88,70,57,27,11,2,15,10,5,0.00,40.00,6,2,17,0.00
2012-1-5,84,68,57,16,8,-1,16,10,4,0.00,40.00,9,4,16,0.00
2012-1-6,81,62,52,28,17,10,31,19,9,0.00,40.00,7,2,16,0.00
2012-1-7,74,57,44,26,20,11,32,25,13,0.00,40.00,4,2,13,0.00
2012-1-8,74,54,39,11,3,-7,24,14,4,0.00,40.00,9,2,16,0.00
2012-1-9,76,58,44,19,11,0,26,17,8,0.00,40.00,8,2,13,0.00
2012-1-10,75,56,44,23,17,14,31,23,11,0.00,40.00,7,2,12,0.00
2012-1-11,75,58,47,28,21,16,33,25,11,0.00,40.00,3,0,11,0.00
2012-1-12,76,57,45,18,8,-3,26,15,7,0.00,40.00,6,2,12,0.00
2012-1-13,75,54,41,1,-17,-100,14,8,1,0.00,40.00,5,2,8,0.00
2012-1-14,68,53,42,15,-6,-23,23,9,3,0.00,40.00,8,2,14,0.00
2012-1-15,64,53,46,39,19,-2,69,29,11,0.00,40.00,6,1,13,0.01
2012-1-16,55,46,41,45,41,36,100,82,54,0.00,40.00,5,1,13,0.05
2012-1-17,60,44,32,37,31,22,93,65,41,0.00,40.00,5,1,10,0.01
2012-1-18,72,53,34,24,13,9,53,23,9,0.00,40.00,4,2,8,0.00
2012-1-19,73,54,41,27,14,5,52,23,11,0.00,40.00,6,2,9,0.00
2012-1-20,68,53,37,38,32,24,76,48,25,0.00,40.00,5,2,11,0.00
2012-1-21,60,49,39,53,43,36,100,83,54,0.00,40.00,5,1,16,0.20
2012-1-22,60,46,36,39,36,30,93,68,40,0.00,40.00,5,2,10,0.02
2012-1-23,52,48,43,49,41,31,100,79,46,0.00,40.00,5,1,11,0.13
2012-1-24,66,51,38,46,38,24,100,65,33,0.00,40.00,8,2,15,0.01
2012-1-25,81,59,43,35,30,24,56,37,18,0.00,40.00,5,2,13,0.00
2012-1-26,85,66,54,34,28,21,41,26,12,0.00,40.00,7,3,16,0.00
2012-1-27,77,58,46,39,28,11,62,35,14,0.00,40.00,5,2,15,0.00
2012-1-28,79,56,41,13,2,-18,28,14,2,0.00,40.00,5,2,11,0.00
2012-1-29,80,59,42,9,-2,-18,15,9,2,0.00,40.00,7,3,14,0.00
2012-1-30,77,58,48,12,4,-4,21,12,4,0.00,40.00,8,3,13,0.00
2012-1-31,73,54,42,28,9,-13,43,19,3,0.00,40.00,8,2,15,0.00
2012-2-1,75,55,41,39,22,11,77,32,10,0.00,40.00,9,2,18,0.00
2012-2-2,74,54,40,34,19,6,77,29,11,0.00,40.00,7,2,14,0.00
2012-2-3,72,53,38,14,7,0,33,18,6,0.00,40.00,4,2,14,0.00
2012-2-4,74,54,38,14,9,2,26,17,9,0.00,40.00,7,2,13,0.00
2012-2-5,73,57,41,14,11,9,28,18,9,0.00,40.00,8,3,17,0.00
2012-2-6,73,58,49,19,14,12,24,18,11,0.00,40.00,6,2,15,0.00
2012-2-7,65,55,47,40,25,11,64,34,14,0.00,40.00,6,2,18,0.00
2012-2-8,78,57,41,36,29,24,61,38,16,0.00,40.00,6,2,13,0.00
2012-2-9,83,63,49,26,23,19,36,24,10,0.00,40.00,9,3,16,0.00
2012-2-10,81,62,48,27,23,20,43,24,11,0.00,40.00,9,3,16,0.00
2012-2-11,63,50,41,41,35,25,81,57,34,0.00,40.00,7,2,16,0.00
2012-2-12,61,50,45,42,40,36,87,70,43,0.00,40.00,6,0,12,0.00
2012-2-13,55,47,39,45,41,35,99,80,58,0.00,40.00,7,2,17,0.08
2012-2-14,61,47,37,40,36,31,95,71,33,0.00,40.00,4,1,11,0.06
2012-2-15,50,44,39,42,38,34,93,82,58,0.00,40.00,7,1,16,0.74
2012-2-16,64,49,35,40,29,15,96,54,20,0.00,40.00,12,5,29,0.23
2012-2-17,72,53,40,28,19,3,44,28,7,0.00,40.00,6,2,16,0.01
2012-2-18,69,53,42,44,26,14,86,42,12,0.00,40.00,6,2,12,0.00
2012-2-19,58,49,41,43,39,33,88,69,39,0.00,40.00,5,1,11,0.00
2012-2-20,63,48,37,40,33,26,83,57,39,0.00,40.00,5,2,14,0.00
2012-2-21,75,55,38,32,24,15,65,34,11,0.00,40.00,8,2,14,0.00
2012-2-22,81,62,47,35,27,21,46,29,14,0.00,40.00,8,2,15,0.00
2012-2-23,85,66,52,30,23,16,32,20,12,0.00,40.00,11,3,17,0.00
2012-2-24,85,64,51,32,21,10,38,21,7,0.00,40.00,7,2,14,0.00
2012-2-25,78,58,36,38,30,20,84,38,12,0.00,40.00,6,2,13,0.00
2012-2-26,72,54,42,46,27,17,97,40,16,0.00,40.00,7,2,15,0.00
2012-2-27,57,43,32,46,37,31,99,81,46,0.00,40.00,13,3,26,0.81
2012-2-28,54,42,35,35,32,28,97,70,41,0.00,40.00,6,2,10,0.59
2012-2-29,60,46,34,39,31,25,83,59,30,0.00,40.00,5,2,12,0.01
2012-3-1,63,50,44,41,39,35,82,66,40,0.00,40.00,7,2,15,0.00
2012-3-2,72,51,35,38,22,-4,92,45,9,0.00,40.00,5,2,12,0.00
2012-3-3,82,59,40,21,12,6,29,18,6,0.00,40.00,7,2,13,0.00
2012-3-4,88,68,46,30,20,13,34,18,8,0.00,40.00,9,3,17,0.00
2012-3-5,86,67,56,33,17,6,29,16,7,0.00,40.00,9,3,17,0.00
2012-3-6,61,52,40,41,32,16,80,48,26,0.00,40.00,9,4,21,0.03
2012-3-7,61,46,32,34,18,5,85,41,15,0.00,40.00,6,2,14,0.07
2012-3-8,78,57,39,17,11,5,36,19,7,0.00,40.00,8,3,14,0.00
2012-3-9,83,63,46,18,10,0,24,14,4,0.00,40.00,9,3,15,0.00
2012-3-10,82,62,44,18,10,-100,34,15,5,0.00,40.00,12,5,18,0.00
2012-3-11,73,56,32,40,31,17,87,44,15,0.00,40.00,7,2,14,0.00
2012-3-12,75,56,32,39,34,29,97,51,19,0.00,40.00,5,2,11,0.00
2012-3-13,72,54,33,43,36,29,96,54,21,0.00,40.00,5,2,14,0.00
2012-3-14,75,55,39,44,37,31,93,59,20,0.00,40.00,5,1,14,0.00
2012-3-15,79,57,41,44,38,30,92,57,18,0.00,40.00,7,2,12,0.00
2012-3-16,73,56,38,47,44,37,100,68,35,0.00,40.00,6,2,12,0.00
2012-3-17,56,48,37,49,44,35,97,89,64,0.00,40.00,12,3,23,0.73
2012-3-18,48,40,32,40,32,27,99,77,48,0.00,40.00,12,4,23,0.65
2012-3-19,59,46,35,38,30,18,96,62,20,0.00,40.00,5,2,14,0.01
2012-3-20,72,55,39,38,28,22,81,41,18,0.00,40.00,6,3,13,0.00
2012-3-21,78,57,46,32,30,28,53,39,19,0.00,40.00,9,3,15,0.00
2012-3-22,82,68,52,39,36,32,54,33,20,0.00,40.00,7,3,15,0.00
2012-3-23,75,56,44,46,41,35,84,60,29,0.00,40.00,8,3,15,0.00
2012-3-24,72,56,42,47,42,35,92,63,36,0.00,40.00,6,2,11,0.00
2012-3-25,67,50,42,48,42,36,100,79,34,0.00,40.00,11,3,22,0.34
2012-3-26,65,51,42,45,41,36,97,72,38,0.00,40.00,6,2,14,0.48
2012-3-27,72,53,39,43,35,29,83,56,20,0.00,40.00,7,2,13,0.01
2012-3-28,72,54,39,44,35,23,88,55,18,0.00,40.00,5,2,12,0.00
2012-3-29,77,58,44,45,42,38,89,58,26,0.00,40.00,7,2,13,0.00
2012-3-30,81,61,43,50,46,40,90,61,30,0.00,40.00,5,2,13,0.00
2012-3-31,62,52,44,49,46,43,97,80,59,0.00,40.00,8,2,14,0.00
2012-4-1,66,52,42,48,37,26,96,60,24,0.00,40.00,7,3,17,0.02
2012-4-2,77,56,39,33,23,7,66,34,7,0.00,40.00,8,3,13,0.00
2012-4-3,82,63,51,29,21,15,40,22,10,0.00,40.00,9,4,17,0.00
2012-4-4,81,62,49,31,26,22,40,27,12,0.00,40.00,6,2,13,0.00
2012-4-5,72,56,43,42,28,17,75,37,19,0.00,40.00,7,3,16,0.00
2012-4-6,78,56,38,42,27,10,93,45,9,0.00,40.00,5,2,12,0.00
2012-4-7,88,66,46,15,6,-4,19,11,3,0.00,40.00,9,3,16,0.00
2012-4-8,88,68,51,22,13,-4,24,12,6,0.00,40.00,9,4,16,0.00
2012-4-9,87,66,47,31,20,12,48,20,6,0.00,40.00,10,3,18,0.00
2012-4-10,79,61,44,45,32,18,80,39,15,0.00,40.00,9,3,20,0.00
2012-4-11,57,50,45,51,44,39,100,80,58,0.00,40.00,8,3,18,0.42
2012-4-12,64,52,42,44,39,33,98,67,33,0.00,40.00,6,2,14,0.01
2012-4-13,57,48,40,46,42,38,95,83,52,0.00,40.00,6,1,26,0.53
2012-4-14,55,46,40,39,34,-100,93,67,48,0.00,40.00,7,3,13,0.08
2012-4-15,74,54,37,42,36,32,84,56,24,0.00,40.00,6,2,13,0.00
2012-4-16,85,66,47,40,35,30,67,37,14,0.00,40.00,6,3,16,0.00
2012-4-17,88,71,56,39,34,27,51,29,12,0.00,40.00,8,3,17,0.00
2012-4-18,87,69,54,43,35,27,56,31,15,0.00,40.00,7,2,13,0.00
2012-4-19,91,70,50,50,44,39,71,44,20,0.00,40.00,7,2,13,0.00
2012-4-20,99,77,57,51,42,35,71,36,11,0.00,40.00,8,2,18,0.00
2012-4-21,99,80,61,51,41,35,70,27,12,0.00,40.00,7,4,22,0.00
2012-4-22,94,74,54,54,50,43,87,51,17,0.00,40.00,8,3,16,0.00
2012-4-23,60,56,52,57,54,52,100,94,77,0.00,40.00,5,1,11,0.01
2012-4-24,83,63,47,53,46,32,100,63,16,0.00,40.00,6,2,13,0.01
2012-4-25,88,67,56,55,48,34,92,58,15,0.00,40.00,9,2,22,0.00
2012-4-26,67,58,50,56,49,45,99,76,45,0.00,40.00,8,3,19,0.47
2012-4-27,78,62,52,53,49,46,99,68,34,0.00,40.00,6,2,14,0.01
2012-4-28,89,66,48,52,44,-100,100,59,13,0.00,40.00,9,2,17,0.00
2012-4-29,88,68,47,55,49,43,97,58,21,0.00,40.00,8,3,15,0.00
2012-4-30,86,66,51,57,54,49,100,72,32,0.00,40.00,7,2,14,0.00
2012-5-1,68,60,55,55,52,48,91,75,50,0.00,40.00,5,2,11,0.00
2012-5-2,65,57,51,54,50,46,100,79,55,0.00,40.00,6,1,9,0.00
2012-5-3,75,61,51,52,48,45,100,67,36,0.00,40.00,7,2,14,0.00
2012-5-4,79,65,52,52,47,42,87,57,27,0.00,40.00,7,3,15,0.00
2012-5-5,84,63,45,50,41,-100,82,52,17,0.00,40.00,8,3,14,0.00
2012-5-6,85,66,48,50,44,35,85,50,24,0.00,40.00,8,3,17,0.00
2012-5-7,92,69,46,47,32,-2,87,35,3,0.00,40.00,10,3,24,0.00
2012-5-8,89,71,52,32,14,-13,34,16,2,0.00,40.00,12,4,35,0.00
2012-5-9,97,79,60,35,23,10,27,14,5,0.00,40.00,12,5,23,0.00
2012-5-10,90,72,51,50,40,24,94,36,13,0.00,40.00,8,3,15,0.00
2012-5-11,85,65,45,51,45,38,100,59,19,0.00,40.00,7,2,15,0.00
2012-5-12,92,68,48,51,44,-100,98,53,12,0.00,40.00,8,2,14,0.00
2012-5-13,95,76,52,53,42,26,76,35,13,0.00,40.00,6,3,14,0.00
2012-5-14,96,78,52,52,41,27,89,32,9,0.00,40.00,7,3,17,0.00
2012-5-15,90,73,48,45,34,21,76,30,9,0.00,40.00,7,3,16,0.00
2012-5-16,102,81,53,49,39,31,53,27,10,0.00,40.00,8,3,16,0.00
2012-5-17,95,77,56,52,45,35,87,37,15,0.00,40.00,9,4,19,0.00
2012-5-18,81,65,54,55,49,44,91,59,29,0.00,40.00,6,3,18,0.00
2012-5-19,93,69,48,52,46,-100,100,55,16,0.00,40.00,9,2,17,0.00
2012-5-20,102,80,53,53,42,28,95,35,8,0.00,40.00,10,3,18,0.00
2012-5-21,101,82,63,42,34,28,42,20,8,0.00,40.00,8,3,17,0.00
2012-5-22,96,78,61,39,33,24,34,20,12,0.00,40.00,8,3,19,0.00
2012-5-23,86,70,53,52,45,35,86,43,26,0.00,40.00,8,4,16,0.00
2012-5-24,84,66,55,55,52,47,94,65,29,0.00,40.00,9,3,15,0.00
2012-5-25,67,58,48,56,48,39,100,75,42,0.00,40.00,12,4,24,0.03
2012-5-26,69,55,46,41,38,33,79,56,28,0.00,40.00,8,3,19,0.01
2012-5-27,84,62,41,45,39,34,87,50,17,0.00,40.00,8,3,16,0.00
2012-5-28,93,74,57,42,33,26,50,25,10,0.00,40.00,9,4,20,0.00
2012-5-29,93,74,58,38,31,23,37,23,8,0.00,40.00,8,4,17,0.00
2012-5-30,91,72,51,47,36,27,53,29,15,0.00,40.00,9,3,18,0.00
2012-5-31,104,80,53,49,44,36,67,33,10,0.00,40.00,10,3,19,0.00
2012-6-1,102,83,55,46,37,19,57,23,6,0.00,40.00,8,3,17,0.00
2012-6-2,93,74,53,52,44,-100,79,38,19,0.00,40.00,8,4,17,0.00
2012-6-3,91,73,50,52,49,43,97,49,20,0.00,40.00,8,3,17,0.00
2012-6-4,86,68,52,55,52,48,100,64,28,0.00,40.00,8,3,17,0.00
2012-6-5,81,66,53,55,49,41,94,60,28,0.00,40.00,8,3,15,0.00
2012-6-6,92,67,48,49,42,34,89,48,13,0.00,40.00,10,3,19,0.00
2012-6-7,97,76,52,48,40,32,61,32,11,0.00,40.00,9,3,18,0.00
2012-6-8,93,76,52,49,45,39,78,39,16,0.00,40.00,8,3,15,0.00
2012-6-9,86,68,52,50,47,40,92,53,21,0.00,40.00,7,3,15,0.00
2012-6-10,89,70,50,51,45,37,88,45,22,0.00,40.00,8,3,15,0.00
2012-6-11,96,76,50,52,48,45,92,44,20,0.00,40.00,7,3,16,0.00
2012-6-12,98,78,53,52,48,34,96,42,12,0.00,40.00,8,3,16,0.00
2012-6-13,95,78,53,50,40,24,77,32,9,0.00,40.00,8,4,17,0.00
2012-6-14,91,70,51,53,46,33,100,52,13,0.00,40.00,7,4,14,0.00
2012-6-15,86,68,49,53,52,48,99,62,32,0.00,40.00,6,3,14,0.00
2012-6-16,99,69,51,53,48,-100,100,59,7,0.00,40.00,14,3,31,0.00
2012-6-17,105,86,57,53,32,24,69,19,7,0.00,40.00,8,3,16,0.00
2012-6-18,98,83,60,47,35,25,38,19,11,0.00,40.00,8,3,17,0.00
2012-6-19,93,76,49,53,42,32,77,34,14,0.00,40.00,6,3,16,0.00
2012-6-20,86,67,52,46,44,42,79,48,25,0.00,40.00,5,2,9,0.00
2012-6-21,95,77,62,50,34,-100,64,27,13,0.00,40.00,8,-70,16,0.00
2012-6-22,92,74,50,52,45,32,91,42,14,0.00,40.00,8,3,19,0.00
2012-6-23,93,77,51,48,40,30,86,32,11,0.00,40.00,8,3,17,0.00
2012-6-24,94,76,53,47,40,31,49,29,17,0.00,40.00,9,3,17,0.00
2012-6-25,94,75,51,44,33,18,70,28,7,0.00,40.00,8,3,17,0.00
2012-6-26,96,78,49,37,27,3,36,17,4,0.00,40.00,8,3,15,0.00
2012-6-27,99,79,57,37,30,18,34,19,6,0.00,40.00,7,2,16,0.00
2012-6-28,101,80,57,38,31,17,42,21,5,0.00,40.00,9,2,16,0.00
2012-6-29,100,81,59,36,28,15,41,18,5,0.00,40.00,8,3,17,0.00
2012-6-30,99,80,58,36,29,21,31,17,7,0.00,40.00,9,3,16,0.00
2012-7-1,95,75,55,47,41,34,52,31,15,0.00,40.00,8,3,16,0.00
2012-7-2,96,76,55,52,46,37,61,37,20,0.00,40.00,8,3,15,0.00
2012-7-3,92,73,54,57,53,50,89,55,29,0.00,40.00,8,3,15,0.00
2012-7-4,90,73,58,58,54,47,86,55,30,0.00,40.00,8,3,15,0.00
2012-7-5,93,72,52,58,55,52,99,60,31,0.00,40.00,8,3,16,0.00
2012-7-6,96,76,55,58,51,37,96,49,16,0.00,40.00,8,3,17,0.00
2012-7-7,100,81,57,47,34,21,54,22,6,0.00,40.00,9,3,18,0.00
2012-7-8,102,83,65,32,24,17,19,12,6,0.00,40.00,7,2,15,0.00
2012-7-9,109,88,65,44,34,25,31,17,6,0.00,40.00,8,3,17,0.00
2012-7-10,109,91,68,49,41,33,41,20,9,0.00,40.00,8,3,17,0.00
2012-7-11,108,87,68,50,46,41,49,28,11,0.00,40.00,9,3,15,0.00
2012-7-12,95,82,70,65,56,46,55,42,27,0.00,40.00,6,1,13,0.00
2012-7-13,90,80,69,70,64,56,98,62,38,0.00,40.00,8,1,12,0.01
2012-7-14,100,83,66,62,56,47,79,44,22,0.00,40.00,9,3,16,0.00
2012-7-15,94,76,61,55,44,30,73,37,11,0.00,40.00,9,3,17,0.00
2012-7-16,89,69,48,50,44,36,83,45,21,0.00,40.00,10,4,16,0.00
2012-7-17,90,68,47,52,46,40,97,54,19,0.00,40.00,7,2,16,0.00
2012-7-18,98,76,56,45,39,21,56,31,7,0.00,40.00,8,2,18,0.00
2012-7-19,101,84,67,47,42,35,37,24,14,0.00,40.00,9,3,21,0.00
2012-7-20,102,84,66,53,48,43,49,31,18,0.00,40.00,8,3,17,0.00
2012-7-21,104,85,68,55,51,47,54,34,15,0.00,40.00,9,3,19,0.00
2012-7-22,103,83,66,57,54,50,68,41,21,0.00,40.00,9,2,17,0.00
2012-7-23,100,83,64,57,51,38,69,37,20,0.00,40.00,8,3,15,0.00
2012-7-24,99,79,61,50,41,22,65,31,7,0.00,40.00,7,3,22,0.00
2012-7-25,98,78,55,38,29,15,41,20,5,0.00,40.00,6,3,14,0.00
2012-7-26,99,77,54,43,34,15,54,26,5,0.00,40.00,7,2,14,0.00
2012-7-27,97,77,52,46,37,15,73,31,5,0.00,40.00,7,3,14,0.00
2012-7-28,101,78,54,38,32,21,42,21,6,0.00,40.00,7,3,15,0.00
2012-7-29,102,81,58,46,35,27,36,21,8,0.00,40.00,8,3,15,0.00
2012-7-30,96,79,64,57,48,39,53,35,22,0.00,40.00,8,2,15,0.00
2012-7-31,95,78,68,58,50,40,71,40,20,0.00,40.00,8,2,19,0.01
2012-8-1,95,78,63,51,45,32,55,35,13,0.00,40.00,6,2,13,0.02
2012-8-2,99,88,70,51,47,43,43,25,18,0.00,40.00,9,4,19,0.00
2012-8-3,97,78,60,54,49,46,62,39,20,0.00,40.00,7,2,14,0.00
2012-8-4,99,77,59,57,54,48,80,48,24,0.00,40.00,7,2,13,0.00
2012-8-5,104,84,63,58,54,49,74,42,17,0.00,40.00,9,3,16,0.00
2012-8-6,107,85,69,65,55,49,63,39,17,0.00,40.00,10,3,22,0.29
2012-8-7,109,91,79,60,53,50,42,29,17,0.00,40.00,9,3,17,0.20
2012-8-8,110,91,75,57,52,47,44,28,15,0.00,40.00,9,3,17,0.00
2012-8-9,111,91,77,59,52,47,42,29,14,0.00,40.00,9,2,18,0.00
2012-8-10,108,90,80,58,55,52,44,31,18,0.00,40.00,8,2,20,0.00
2012-8-11,109,81,73,75,56,-100,94,47,15,0.00,40.00,10,2,24,0.63
2012-8-12,105,87,73,63,57,52,57,39,19,0.00,40.00,8,2,24,0.16
2012-8-13,108,88,75,61,57,48,57,37,19,0.00,40.00,7,2,21,0.00
2012-8-14,106,88,73,58,53,45,53,34,15,0.00,40.00,9,3,16,0.00
2012-8-15,102,83,71,55,49,43,47,33,17,0.00,40.00,8,2,14,0.00
2012-8-16,101,82,70,78,56,47,75,43,19,0.00,40.00,11,1,21,0.16
2012-8-17,99,83,75,72,65,55,75,56,30,0.00,40.00,10,1,22,0.11
2012-8-18,101,85,71,69,63,56,79,52,29,0.00,40.00,7,3,17,0.00
2012-8-19,103,84,66,62,58,54,77,46,23,0.00,40.00,10,2,17,0.00
2012-8-20,102,82,67,60,56,53,66,44,22,0.00,40.00,8,2,14,0.00
2012-8-21,99,80,66,63,60,57,80,54,26,0.00,40.00,8,2,15,0.00
2012-8-22,95,79,68,68,62,60,79,59,33,0.00,40.00,8,2,13,0.00
2012-8-23,97,78,60,64,62,60,100,64,30,0.00,40.00,8,2,17,0.00
2012-8-24,97,77,63,65,63,60,100,69,31,0.00,40.00,8,2,15,0.00
2012-8-25,92,76,63,65,59,49,100,63,30,0.00,40.00,7,2,14,0.00
2012-8-26,97,76,56,55,43,26,88,41,8,0.00,40.00,6,2,16,0.00
2012-8-27,104,82,64,48,40,31,37,24,12,0.00,40.00,8,2,20,0.00
2012-8-28,105,85,71,52,44,40,37,25,13,0.00,40.00,5,1,11,0.00
2012-8-29,101,86,74,72,53,44,68,34,21,0.00,40.00,9,3,18,0.20
2012-8-30,98,78,66,72,62,54,95,63,25,0.00,40.00,9,2,34,1.02
2012-8-31,97,81,68,64,54,38,82,46,17,0.00,40.00,7,2,15,0.01
2012-9-1,98,80,63,43,34,26,44,22,9,0.00,40.00,10,3,18,0.00
2012-9-2,101,79,59,39,30,18,37,20,5,0.00,40.00,5,2,12,0.00
2012-9-3,103,82,64,44,34,20,36,20,7,0.00,40.00,7,2,13,0.00
2012-9-4,102,83,65,47,38,28,38,23,8,0.00,40.00,7,2,16,0.00
2012-9-5,96,79,69,48,42,36,42,29,13,0.00,40.00,8,2,14,0.00
2012-9-6,96,78,63,56,50,42,62,39,22,0.00,40.00,7,2,15,0.00
2012-9-7,96,79,65,60,56,54,75,50,25,0.00,40.00,6,2,15,0.00
2012-9-8,104,82,66,61,57,53,77,47,21,0.00,40.00,8,2,20,0.00
2012-9-9,101,80,67,67,61,57,100,55,26,0.00,40.00,16,2,35,0.76
2012-9-10,92,76,67,76,68,62,100,80,41,0.00,40.00,9,1,24,0.13
2012-9-11,87,76,68,71,68,65,100,79,50,0.00,40.00,6,2,13,0.05
2012-9-12,97,78,61,67,62,57,100,65,27,0.00,40.00,6,2,13,0.00
2012-9-13,104,79,66,61,50,34,81,44,11,0.00,40.00,8,2,18,0.00
2012-9-14,100,86,71,42,36,31,29,18,11,0.00,40.00,12,5,24,0.00
2012-9-15,99,84,69,43,34,27,31,19,8,0.00,40.00,9,4,22,0.00
2012-9-16,97,82,71,43,37,30,31,20,15,0.00,40.00,9,4,16,0.00
2012-9-17,94,77,61,43,39,34,44,28,15,0.00,40.00,8,3,17,0.00
2012-9-18,102,80,67,52,39,30,50,25,12,0.00,40.00,9,2,17,0.00
2012-9-19,103,81,65,49,42,36,50,28,11,0.00,40.00,8,2,17,0.00
2012-9-20,105,86,70,45,40,36,35,21,10,0.00,40.00,8,3,16,0.00
2012-9-21,105,84,69,50,42,37,37,24,11,0.00,40.00,7,2,14,0.00
2012-9-22,101,81,70,50,43,-100,37,28,15,0.00,40.00,5,1,11,0.00
2012-9-23,102,84,72,46,39,37,34,22,11,0.00,40.00,9,2,16,0.00
2012-9-24,95,79,64,46,40,33,43,26,17,0.00,40.00,9,3,19,0.00
2012-9-25,90,71,59,48,42,36,59,39,16,0.00,40.00,8,2,18,0.00
2012-9-26,95,73,57,52,46,39,68,42,17,0.00,40.00,8,2,16,0.00
2012-9-27,98,77,58,52,43,36,68,33,16,0.00,40.00,9,2,17,0.00
2012-9-28,97,79,63,46,41,38,43,29,14,0.00,40.00,7,3,18,0.00
2012-9-29,99,80,66,49,43,39,39,28,14,0.00,40.00,8,2,15,0.00
2012-9-30,103,85,70,42,35,27,30,18,7,0.00,40.00,10,4,19,0.00
2012-10-1,110,88,75,40,32,25,23,14,6,0.00,40.00,10,4,16,0.00
2012-10-2,105,87,73,37,28,20,22,12,7,0.00,40.00,10,5,20,0.00
2012-10-3,98,80,66,42,34,26,35,20,11,0.00,40.00,7,2,18,0.00
2012-10-4,90,72,58,45,37,25,55,30,15,0.00,40.00,7,2,13,0.00
2012-10-5,87,68,52,50,42,34,63,43,20,0.00,40.00,6,2,12,0.00
2012-10-6,87,69,54,52,46,39,71,47,24,0.00,40.00,6,1,13,0.00
2012-10-7,90,70,55,52,47,43,78,49,21,0.00,40.00,6,2,13,0.00
2012-10-8,86,68,54,55,47,38,69,49,18,0.00,40.00,7,2,15,0.00
2012-10-9,83,65,46,53,47,36,95,57,20,0.00,40.00,6,2,12,0.00
2012-10-10,77,64,53,53,49,45,97,62,32,0.00,40.00,7,2,15,0.00
2012-10-11,69,56,49,52,47,41,100,73,40,0.00,40.00,6,2,21,0.26
2012-10-12,69,57,49,50,47,43,95,72,42,0.00,40.00,4,1,10,0.02
2012-10-13,84,63,47,49,43,37,85,52,22,0.00,40.00,5,1,11,0.00
2012-10-14,95,74,59,44,38,33,46,29,13,0.00,40.00,9,2,13,0.00
2012-10-15,95,79,66,38,33,26,29,20,10,0.00,40.00,7,3,15,0.00
2012-10-16,99,80,68,39,32,28,30,19,9,0.00,40.00,9,4,17,0.00
2012-10-17,101,80,66,38,32,26,26,18,10,0.00,40.00,8,2,17,0.00
2012-10-18,84,72,55,60,50,33,96,49,25,0.00,40.00,6,2,13,0.00
2012-10-19,89,68,52,60,54,45,100,69,24,0.00,40.00,7,2,12,0.00
2012-10-20,77,64,51,61,57,51,100,81,53,0.00,40.00,6,2,12,0.00
2012-10-21,72,62,57,60,56,52,97,81,51,0.00,40.00,7,2,12,0.00
2012-10-22,74,62,53,57,51,44,93,70,37,0.00,40.00,6,2,13,0.00
2012-10-23,72,57,47,51,45,38,93,68,37,0.00,40.00,8,2,13,0.00
2012-10-24,75,56,42,46,38,34,82,56,26,0.00,40.00,5,2,14,0.00
2012-10-25,84,64,48,37,22,15,65,23,10,0.00,40.00,8,2,13,0.00
2012-10-26,87,64,50,29,18,7,33,19,8,0.00,40.00,5,2,12,0.00
2012-10-27,94,73,51,28,15,9,23,12,5,0.00,40.00,4,2,11,0.00
2012-10-28,93,73,60,23,16,9,19,12,6,0.00,40.00,6,2,14,0.00
2012-10-29,91,70,57,30,19,13,26,16,7,0.00,40.00,5,1,11,0.00
2012-10-30,91,69,55,35,22,12,35,18,8,0.00,40.00,5,1,10,0.00
2012-10-31,85,67,54,43,30,21,52,28,12,0.00,40.00,6,1,12,0.00
2012-11-1,81,61,48,47,35,25,74,41,17,0.00,40.00,6,1,10,0.00
2012-11-2,78,60,40,48,40,34,93,53,24,0.00,40.00,4,1,10,0.00
2012-11-3,87,67,51,35,26,19,52,23,9,0.00,40.00,6,2,14,0.00
2012-11-4,91,70,56,32,24,16,30,19,7,0.00,40.00,4,2,10,0.00
2012-11-5,94,73,59,28,22,18,22,16,7,0.00,40.00,5,2,11,0.00
2012-11-6,92,74,61,36,28,23,32,19,9,0.00,40.00,11,4,18,0.00
2012-11-7,87,66,55,42,32,25,50,31,12,0.00,40.00,5,2,11,0.00
2012-11-8,71,58,47,56,48,35,96,71,42,0.00,40.00,6,2,13,0.01
2012-11-9,58,51,44,54,43,31,97,75,35,0.00,40.00,9,2,18,0.09
2012-11-10,61,47,37,40,33,22,88,62,25,0.00,40.00,7,2,15,0.01
2012-11-11,68,51,36,30,17,10,72,30,12,0.00,40.00,7,3,16,0.01
2012-11-12,75,55,37,18,11,4,40,21,7,0.00,40.00,5,2,10,0.00
2012-11-13,83,64,42,26,11,5,32,14,6,0.00,40.00,6,3,17,0.00
2012-11-14,83,64,50,21,11,-100,20,13,7,0.00,40.00,7,2,14,0.00
2012-11-15,70,59,51,31,23,14,39,25,16,0.00,40.00,3,1,12,0.00
2012-11-16,72,58,48,48,32,20,81,40,23,0.00,40.00,3,0,8,0.00
2012-11-17,67,58,53,55,52,48,96,80,57,0.00,40.00,5,0,9,0.02
2012-11-18,70,58,53,53,48,43,93,70,41,0.00,40.00,5,1,10,0.01
2012-11-19,73,57,46,46,41,37,81,58,28,0.00,40.00,5,2,10,0.00
2012-11-20,79,60,49,44,33,24,62,39,16,0.00,40.00,5,2,13,0.00
2012-11-21,77,59,48,43,32,23,60,38,22,0.00,40.00,5,2,11,0.00
2012-11-22,82,61,49,40,35,30,54,38,22,0.00,40.00,5,2,12,0.00
2012-11-23,88,66,52,34,28,18,43,26,11,0.00,40.00,8,2,14,0.00
2012-11-24,88,70,57,34,27,14,29,21,11,0.00,40.00,6,2,17,0.00
2012-11-25,83,67,56,32,28,25,35,25,13,0.00,40.00,8,2,14,0.00
2012-11-26,66,53,47,39,32,27,56,44,31,0.00,40.00,3,0,9,0.00
2012-11-27,78,64,49,39,30,26,67,29,16,0.00,40.00,9,3,17,0.00
2012-11-28,72,54,40,47,40,30,88,61,34,0.00,40.00,5,1,13,0.00
2012-11-29,70,57,51,59,52,42,98,85,63,0.00,40.00,5,0,17,0.02
2012-11-30,68,59,53,59,55,51,98,87,62,0.00,40.00,4,1,11,0.01
2012-12-1,69,58,52,55,52,49,99,81,52,0.00,40.00,7,1,12,0.01
2012-12-2,65,57,49,56,52,47,96,84,62,0.00,40.00,5,1,10,0.01
2012-12-3,72,59,51,57,53,46,99,83,52,0.00,40.00,7,2,10,0.01
2012-12-4,79,59,44,53,42,28,97,61,28,0.00,40.00,7,1,10,0.01
2012-12-5,81,61,51,38,26,18,58,29,12,0.00,40.00,5,2,14,0.00
2012-12-6,74,54,46,47,40,-100,84,64,33,0.00,40.00,5,1,10,0.00
2012-12-7,79,60,49,41,37,31,75,46,21,0.00,40.00,9,2,14,0.00
2012-12-8,76,58,50,32,27,22,45,31,16,0.00,40.00,8,3,15,0.00
2012-12-9,75,58,45,36,28,24,43,33,19,0.00,40.00,4,1,11,0.00
2012-12-10,76,65,55,31,25,22,37,23,13,0.00,40.00,10,4,16,0.00
2012-12-11,74,56,48,31,24,17,41,30,14,0.00,40.00,4,1,10,0.00
2012-12-12,65,52,37,46,34,19,79,52,36,0.00,40.00,7,1,13,0.00
2012-12-13,53,48,42,48,45,40,98,90,64,0.00,40.00,5,1,16,0.65
2012-12-14,54,44,39,43,38,33,95,79,45,0.00,40.00,7,2,15,0.19
2012-12-15,56,46,40,44,38,30,99,78,38,0.00,40.00,5,1,14,0.11
2012-12-16,55,48,42,48,43,37,99,84,62,0.00,40.00,2,0,9,0.02
2012-12-17,65,53,47,53,49,46,99,88,51,0.00,40.00,5,1,10,0.00
2012-12-18,55,48,35,52,46,28,99,90,74,0.00,40.00,8,1,16,0.11
2012-12-19,57,41,32,28,21,14,80,49,22,0.00,40.00,6,2,12,0.01
2012-12-20,68,48,32,24,19,15,61,34,16,0.00,40.00,5,2,10,0.00
2012-12-21,68,50,40,24,15,8,41,26,10,0.00,40.00,4,1,14,0.00
2012-12-22,64,48,39,37,23,12,84,40,22,0.00,40.00,4,1,9,0.00
2012-12-23,62,49,41,47,41,36,89,74,51,0.00,40.00,5,1,14,0.00
2012-12-24,60,50,45,56,47,40,99,88,69,0.00,40.00,5,1,11,0.08
2012-12-25,61,48,40,40,34,29,85,60,30,0.00,40.00,7,1,12,0.01
2012-12-26,54,46,38,48,40,31,98,79,60,0.00,40.00,9,2,18,0.11
2012-12-27,55,44,35,39,34,29,94,71,42,0.00,40.00,8,2,15,0.01
2012-12-28,61,46,33,30,22,19,71,41,21,0.00,40.00,8,2,16,0.00
2012-12-29,56,44,37,42,32,20,98,67,33,0.00,40.00,4,1,13,0.12
2012-12-30,51,40,33,40,36,32,99,88,53,0.00,40.00,8,1,12,0.18
2012-12-31,57,42,33,36,30,25,95,65,33,0.00,40.00,9,3,14,0.06
2013-1-1,57,44,35,30,26,22,76,50,31,0.00,40.00,6,2,14,0.00